sensor_id;sensor_type;location;lat;lon;timestamp;P1;durP1;ratioP1;P2;durP2;ratioP2
19509;SDS011;9896;42.486;26.506;2023-07-22T00:02:02;19.87;;;12.00;;
19509;SDS011;9896;42.486;26.506;2023-07-22T00:04:28;17.27;;;11.63;;
19509;SDS011;9896;42.486;26.506;2023-07-22T00:06:54;16.90;;;11.37;;
19509;SDS011;9896;42.486;26.506;2023-07-22T00:09:19;14.90;;;11.43;;
19509;SDS011;9896;42.486;26.506;2023-07-22T00:11:45;17.77;;;12.40;;
19509;SDS011;9896;42.486;26.506;2023-07-22T00:14:10;16.50;;;11.83;;
19509;SDS011;9896;42.486;26.506;2023-07-22T00:16:35;15.87;;;11.90;;
19509;SDS011;9896;42.486;26.506;2023-07-22T00:19:01;16.47;;;11.67;;
19509;SDS011;9896;42.486;26.506;2023-07-22T00:21:27;25.03;;;12.97;;
19509;SDS011;9896;42.486;26.506;2023-07-22T00:23:54;17.67;;;12.60;;
19509;SDS011;9896;42.486;26.506;2023-07-22T00:26:19;21.27;;;12.43;;
19509;SDS011;9896;42.486;26.506;2023-07-22T00:28:45;18.97;;;12.30;;
19509;SDS011;9896;42.486;26.506;2023-07-22T00:31:10;19.33;;;12.43;;
19509;SDS011;9896;42.486;26.506;2023-07-22T00:33:36;17.97;;;12.63;;
19509;SDS011;9896;42.486;26.506;2023-07-22T00:36:01;22.90;;;13.03;;
19509;SDS011;9896;42.486;26.506;2023-07-22T00:38:26;19.43;;;13.03;;
19509;SDS011;9896;42.486;26.506;2023-07-22T00:40:52;17.00;;;12.77;;
19509;SDS011;9896;42.486;26.506;2023-07-22T00:43:18;21.80;;;13.77;;
19509;SDS011;9896;42.486;26.506;2023-07-22T00:45:44;20.37;;;13.20;;
19509;SDS011;9896;42.486;26.506;2023-07-22T00:48:09;22.07;;;14.13;;
19509;SDS011;9896;42.486;26.506;2023-07-22T00:50:35;20.40;;;14.40;;
19509;SDS011;9896;42.486;26.506;2023-07-22T00:53:00;24.27;;;15.40;;
19509;SDS011;9896;42.486;26.506;2023-07-22T00:55:26;22.87;;;14.80;;
19509;SDS011;9896;42.486;26.506;2023-07-22T00:57:54;22.07;;;15.37;;
19509;SDS011;9896;42.486;26.506;2023-07-22T01:00:19;22.70;;;15.50;;
19509;SDS011;9896;42.486;26.506;2023-07-22T01:02:45;26.40;;;16.33;;
19509;SDS011;9896;42.486;26.506;2023-07-22T01:05:10;29.97;;;15.20;;
19509;SDS011;9896;42.486;26.506;2023-07-22T01:07:37;22.33;;;15.93;;
19509;SDS011;9896;42.486;26.506;2023-07-22T01:10:03;22.20;;;15.13;;
19509;SDS011;9896;42.486;26.506;2023-07-22T01:12:30;25.10;;;15.70;;
19509;SDS011;9896;42.486;26.506;2023-07-22T01:14:56;22.37;;;16.23;;
19509;SDS011;9896;42.486;26.506;2023-07-22T01:17:21;22.33;;;15.20;;
19509;SDS011;9896;42.486;26.506;2023-07-22T01:19:47;24.67;;;16.07;;
19509;SDS011;9896;42.486;26.506;2023-07-22T01:22:13;22.17;;;15.50;;
19509;SDS011;9896;42.486;26.506;2023-07-22T01:24:38;23.10;;;14.80;;
19509;SDS011;9896;42.486;26.506;2023-07-22T01:27:04;21.67;;;14.53;;
19509;SDS011;9896;42.486;26.506;2023-07-22T01:29:33;28.17;;;15.47;;
19509;SDS011;9896;42.486;26.506;2023-07-22T01:31:59;21.90;;;15.80;;
19509;SDS011;9896;42.486;26.506;2023-07-22T01:34:24;30.27;;;16.03;;
19509;SDS011;9896;42.486;26.506;2023-07-22T01:36:50;23.53;;;16.50;;
19509;SDS011;9896;42.486;26.506;2023-07-22T01:39:16;23.53;;;16.70;;
19509;SDS011;9896;42.486;26.506;2023-07-22T01:41:41;21.27;;;16.83;;
19509;SDS011;9896;42.486;26.506;2023-07-22T01:44:07;23.97;;;16.73;;
19509;SDS011;9896;42.486;26.506;2023-07-22T01:46:39;28.77;;;16.43;;
19509;SDS011;9896;42.486;26.506;2023-07-22T01:49:05;26.00;;;17.37;;
19509;SDS011;9896;42.486;26.506;2023-07-22T01:51:31;24.33;;;16.37;;
19509;SDS011;9896;42.486;26.506;2023-07-22T01:53:57;24.93;;;16.47;;
19509;SDS011;9896;42.486;26.506;2023-07-22T01:56:23;22.20;;;16.17;;
19509;SDS011;9896;42.486;26.506;2023-07-22T01:58:48;33.30;;;16.17;;
19509;SDS011;9896;42.486;26.506;2023-07-22T02:01:13;25.70;;;16.43;;
19509;SDS011;9896;42.486;26.506;2023-07-22T02:03:41;25.90;;;15.37;;
19509;SDS011;9896;42.486;26.506;2023-07-22T02:06:06;27.30;;;16.83;;
19509;SDS011;9896;42.486;26.506;2023-07-22T02:08:32;22.53;;;16.10;;
19509;SDS011;9896;42.486;26.506;2023-07-22T02:11:05;22.20;;;16.20;;
19509;SDS011;9896;42.486;26.506;2023-07-22T02:13:31;23.03;;;14.47;;
19509;SDS011;9896;42.486;26.506;2023-07-22T02:15:56;25.07;;;15.30;;
19509;SDS011;9896;42.486;26.506;2023-07-22T02:18:22;25.00;;;15.07;;
19509;SDS011;9896;42.486;26.506;2023-07-22T02:20:47;27.00;;;16.60;;
19509;SDS011;9896;42.486;26.506;2023-07-22T02:23:13;29.07;;;16.80;;
19509;SDS011;9896;42.486;26.506;2023-07-22T02:25:39;24.17;;;16.70;;
19509;SDS011;9896;42.486;26.506;2023-07-22T02:28:04;27.87;;;17.87;;
19509;SDS011;9896;42.486;26.506;2023-07-22T02:30:29;25.37;;;18.80;;
19509;SDS011;9896;42.486;26.506;2023-07-22T02:32:55;28.13;;;19.03;;
19509;SDS011;9896;42.486;26.506;2023-07-22T02:35:21;28.13;;;18.50;;
19509;SDS011;9896;42.486;26.506;2023-07-22T02:37:46;25.67;;;19.17;;
19509;SDS011;9896;42.486;26.506;2023-07-22T02:40:12;29.63;;;21.17;;
19509;SDS011;9896;42.486;26.506;2023-07-22T02:42:37;32.33;;;24.10;;
19509;SDS011;9896;42.486;26.506;2023-07-22T02:45:03;32.27;;;22.17;;
19509;SDS011;9896;42.486;26.506;2023-07-22T02:47:29;32.53;;;22.00;;
19509;SDS011;9896;42.486;26.506;2023-07-22T02:49:55;34.17;;;21.93;;
19509;SDS011;9896;42.486;26.506;2023-07-22T02:52:20;35.50;;;21.33;;
19509;SDS011;9896;42.486;26.506;2023-07-22T02:55:03;28.90;;;20.60;;
19509;SDS011;9896;42.486;26.506;2023-07-22T02:57:29;22.17;;;18.40;;
19509;SDS011;9896;42.486;26.506;2023-07-22T02:59:54;26.73;;;18.43;;
19509;SDS011;9896;42.486;26.506;2023-07-22T03:02:19;27.80;;;19.03;;
19509;SDS011;9896;42.486;26.506;2023-07-22T03:04:45;25.97;;;18.87;;
19509;SDS011;9896;42.486;26.506;2023-07-22T03:07:10;24.13;;;16.40;;
19509;SDS011;9896;42.486;26.506;2023-07-22T03:09:35;25.03;;;16.30;;
19509;SDS011;9896;42.486;26.506;2023-07-22T03:12:01;22.53;;;15.77;;
19509;SDS011;9896;42.486;26.506;2023-07-22T03:14:26;19.17;;;14.30;;
19509;SDS011;9896;42.486;26.506;2023-07-22T03:16:52;21.87;;;16.57;;
19509;SDS011;9896;42.486;26.506;2023-07-22T03:19:18;24.13;;;16.87;;
19509;SDS011;9896;42.486;26.506;2023-07-22T03:21:44;26.33;;;17.63;;
19509;SDS011;9896;42.486;26.506;2023-07-22T03:24:09;22.20;;;16.37;;
19509;SDS011;9896;42.486;26.506;2023-07-22T03:26:35;24.73;;;16.97;;
19509;SDS011;9896;42.486;26.506;2023-07-22T03:29:00;26.30;;;17.07;;
19509;SDS011;9896;42.486;26.506;2023-07-22T03:31:26;22.03;;;15.77;;
19509;SDS011;9896;42.486;26.506;2023-07-22T03:33:51;26.63;;;16.80;;
19509;SDS011;9896;42.486;26.506;2023-07-22T03:36:17;21.20;;;16.63;;
19509;SDS011;9896;42.486;26.506;2023-07-22T03:38:43;27.53;;;16.87;;
19509;SDS011;9896;42.486;26.506;2023-07-22T03:41:08;23.70;;;16.67;;
19509;SDS011;9896;42.486;26.506;2023-07-22T03:43:34;25.97;;;17.63;;
19509;SDS011;9896;42.486;26.506;2023-07-22T03:45:59;29.20;;;18.87;;
19509;SDS011;9896;42.486;26.506;2023-07-22T03:48:24;33.43;;;19.47;;
19509;SDS011;9896;42.486;26.506;2023-07-22T03:50:50;32.37;;;20.20;;
19509;SDS011;9896;42.486;26.506;2023-07-22T03:53:15;26.40;;;18.77;;
19509;SDS011;9896;42.486;26.506;2023-07-22T03:55:41;29.27;;;20.43;;
19509;SDS011;9896;42.486;26.506;2023-07-22T03:58:06;28.73;;;20.23;;
19509;SDS011;9896;42.486;26.506;2023-07-22T04:00:33;32.27;;;19.87;;
19509;SDS011;9896;42.486;26.506;2023-07-22T04:02:58;31.10;;;18.90;;
19509;SDS011;9896;42.486;26.506;2023-07-22T04:05:23;28.60;;;18.53;;
19509;SDS011;9896;42.486;26.506;2023-07-22T04:07:48;29.57;;;18.23;;
19509;SDS011;9896;42.486;26.506;2023-07-22T04:10:14;29.80;;;17.50;;
19509;SDS011;9896;42.486;26.506;2023-07-22T04:12:39;22.77;;;17.80;;
19509;SDS011;9896;42.486;26.506;2023-07-22T04:15:05;26.00;;;17.87;;
19509;SDS011;9896;42.486;26.506;2023-07-22T04:17:30;28.57;;;18.27;;
19509;SDS011;9896;42.486;26.506;2023-07-22T04:19:56;27.63;;;17.73;;
19509;SDS011;9896;42.486;26.506;2023-07-22T04:22:21;26.37;;;17.53;;
19509;SDS011;9896;42.486;26.506;2023-07-22T04:24:47;26.40;;;17.43;;
19509;SDS011;9896;42.486;26.506;2023-07-22T04:27:15;26.43;;;17.03;;
19509;SDS011;9896;42.486;26.506;2023-07-22T04:29:41;24.60;;;18.30;;
19509;SDS011;9896;42.486;26.506;2023-07-22T04:32:07;24.27;;;18.47;;
19509;SDS011;9896;42.486;26.506;2023-07-22T04:34:33;27.13;;;18.17;;
19509;SDS011;9896;42.486;26.506;2023-07-22T04:36:59;28.43;;;17.50;;
19509;SDS011;9896;42.486;26.506;2023-07-22T04:39:24;34.23;;;19.27;;
19509;SDS011;9896;42.486;26.506;2023-07-22T04:41:50;28.77;;;19.40;;
19509;SDS011;9896;42.486;26.506;2023-07-22T04:44:16;33.77;;;20.90;;
19509;SDS011;9896;42.486;26.506;2023-07-22T04:46:42;32.90;;;19.80;;
19509;SDS011;9896;42.486;26.506;2023-07-22T04:49:08;33.87;;;19.67;;
19509;SDS011;9896;42.486;26.506;2023-07-22T04:51:33;33.27;;;17.93;;
19509;SDS011;9896;42.486;26.506;2023-07-22T04:53:59;25.27;;;17.27;;
19509;SDS011;9896;42.486;26.506;2023-07-22T04:56:24;28.17;;;19.47;;
19509;SDS011;9896;42.486;26.506;2023-07-22T04:58:49;23.40;;;18.40;;
19509;SDS011;9896;42.486;26.506;2023-07-22T05:01:15;19.92;;;16.15;;
19509;SDS011;9896;42.486;26.506;2023-07-22T05:03:41;23.38;;;15.30;;
19509;SDS011;9896;42.486;26.506;2023-07-22T05:06:06;22.30;;;13.07;;
19509;SDS011;9896;42.486;26.506;2023-07-22T05:08:33;21.90;;;11.43;;
19509;SDS011;9896;42.486;26.506;2023-07-22T05:10:59;11.80;;;8.20;;
19509;SDS011;9896;42.486;26.506;2023-07-22T05:13:24;14.40;;;8.77;;
19509;SDS011;9896;42.486;26.506;2023-07-22T05:15:49;13.17;;;11.13;;
19509;SDS011;9896;42.486;26.506;2023-07-22T05:18:15;11.73;;;9.03;;
19509;SDS011;9896;42.486;26.506;2023-07-22T05:20:40;15.27;;;8.77;;
19509;SDS011;9896;42.486;26.506;2023-07-22T05:23:06;12.93;;;8.75;;
19509;SDS011;9896;42.486;26.506;2023-07-22T05:25:31;14.27;;;8.85;;
19509;SDS011;9896;42.486;26.506;2023-07-22T05:27:56;29.95;;;9.95;;
19509;SDS011;9896;42.486;26.506;2023-07-22T05:30:22;12.45;;;8.68;;
19509;SDS011;9896;42.486;26.506;2023-07-22T05:32:47;78.20;;;12.88;;
19509;SDS011;9896;42.486;26.506;2023-07-22T05:35:13;12.50;;;8.07;;
19509;SDS011;9896;42.486;26.506;2023-07-22T05:37:38;13.05;;;7.85;;
19509;SDS011;9896;42.486;26.506;2023-07-22T05:40:03;12.50;;;8.75;;
19509;SDS011;9896;42.486;26.506;2023-07-22T05:42:29;13.60;;;7.65;;
19509;SDS011;9896;42.486;26.506;2023-07-22T05:44:56;12.40;;;7.88;;
19509;SDS011;9896;42.486;26.506;2023-07-22T05:47:22;14.07;;;8.40;;
19509;SDS011;9896;42.486;26.506;2023-07-22T05:49:48;47.67;;;9.10;;
19509;SDS011;9896;42.486;26.506;2023-07-22T05:52:13;12.47;;;8.13;;
19509;SDS011;9896;42.486;26.506;2023-07-22T05:54:38;12.95;;;8.85;;
19509;SDS011;9896;42.486;26.506;2023-07-22T05:57:04;12.32;;;8.35;;
19509;SDS011;9896;42.486;26.506;2023-07-22T05:59:30;11.73;;;8.10;;
19509;SDS011;9896;42.486;26.506;2023-07-22T06:01:55;10.48;;;7.57;;
19509;SDS011;9896;42.486;26.506;2023-07-22T06:04:21;9.45;;;8.15;;
19509;SDS011;9896;42.486;26.506;2023-07-22T06:06:46;12.18;;;9.02;;
19509;SDS011;9896;42.486;26.506;2023-07-22T06:09:12;9.40;;;7.53;;
19509;SDS011;9896;42.486;26.506;2023-07-22T06:11:37;9.80;;;8.23;;
19509;SDS011;9896;42.486;26.506;2023-07-22T06:14:02;10.88;;;8.13;;
19509;SDS011;9896;42.486;26.506;2023-07-22T06:16:28;12.82;;;7.75;;
19509;SDS011;9896;42.486;26.506;2023-07-22T06:18:53;8.82;;;7.93;;
19509;SDS011;9896;42.486;26.506;2023-07-22T06:21:19;9.88;;;8.60;;
19509;SDS011;9896;42.486;26.506;2023-07-22T06:23:45;10.40;;;8.07;;
19509;SDS011;9896;42.486;26.506;2023-07-22T06:26:11;11.02;;;7.80;;
19509;SDS011;9896;42.486;26.506;2023-07-22T06:28:36;12.65;;;8.05;;
19509;SDS011;9896;42.486;26.506;2023-07-22T06:31:02;14.65;;;8.68;;
19509;SDS011;9896;42.486;26.506;2023-07-22T06:33:27;14.32;;;8.57;;
19509;SDS011;9896;42.486;26.506;2023-07-22T06:35:53;12.48;;;8.73;;
19509;SDS011;9896;42.486;26.506;2023-07-22T06:38:18;12.90;;;8.18;;
19509;SDS011;9896;42.486;26.506;2023-07-22T06:40:43;12.25;;;8.13;;
19509;SDS011;9896;42.486;26.506;2023-07-22T06:43:09;12.60;;;8.00;;
19509;SDS011;9896;42.486;26.506;2023-07-22T06:45:34;10.32;;;7.68;;
19509;SDS011;9896;42.486;26.506;2023-07-22T06:48:00;11.23;;;7.93;;
19509;SDS011;9896;42.486;26.506;2023-07-22T06:50:25;13.85;;;7.97;;
19509;SDS011;9896;42.486;26.506;2023-07-22T06:52:50;11.82;;;7.78;;
19509;SDS011;9896;42.486;26.506;2023-07-22T06:55:16;11.98;;;7.78;;
19509;SDS011;9896;42.486;26.506;2023-07-22T06:57:41;10.40;;;7.90;;
19509;SDS011;9896;42.486;26.506;2023-07-22T07:00:07;9.45;;;6.97;;
19509;SDS011;9896;42.486;26.506;2023-07-22T07:02:35;11.27;;;7.43;;
19509;SDS011;9896;42.486;26.506;2023-07-22T07:05:00;13.38;;;7.13;;
19509;SDS011;9896;42.486;26.506;2023-07-22T07:07:26;13.02;;;6.80;;
19509;SDS011;9896;42.486;26.506;2023-07-22T07:09:51;9.32;;;6.25;;
19509;SDS011;9896;42.486;26.506;2023-07-22T07:12:17;10.57;;;6.60;;
19509;SDS011;9896;42.486;26.506;2023-07-22T07:14:42;12.00;;;6.65;;
19509;SDS011;9896;42.486;26.506;2023-07-22T07:17:08;9.70;;;6.30;;
19509;SDS011;9896;42.486;26.506;2023-07-22T07:19:34;10.30;;;6.32;;
19509;SDS011;9896;42.486;26.506;2023-07-22T07:22:00;9.23;;;6.70;;
19509;SDS011;9896;42.486;26.506;2023-07-22T07:24:26;11.93;;;6.38;;
19509;SDS011;9896;42.486;26.506;2023-07-22T07:26:52;9.45;;;6.30;;
19509;SDS011;9896;42.486;26.506;2023-07-22T07:29:17;11.48;;;5.88;;
19509;SDS011;9896;42.486;26.506;2023-07-22T07:31:43;11.70;;;5.97;;
19509;SDS011;9896;42.486;26.506;2023-07-22T07:34:08;10.55;;;6.57;;
19509;SDS011;9896;42.486;26.506;2023-07-22T07:36:34;7.85;;;6.20;;
19509;SDS011;9896;42.486;26.506;2023-07-22T07:38:59;8.02;;;5.72;;
19509;SDS011;9896;42.486;26.506;2023-07-22T07:41:25;10.82;;;6.05;;
19509;SDS011;9896;42.486;26.506;2023-07-22T07:43:50;11.63;;;6.00;;
19509;SDS011;9896;42.486;26.506;2023-07-22T07:46:17;11.18;;;6.22;;
19509;SDS011;9896;42.486;26.506;2023-07-22T07:48:46;12.30;;;6.22;;
19509;SDS011;9896;42.486;26.506;2023-07-22T07:51:13;11.43;;;6.13;;
19509;SDS011;9896;42.486;26.506;2023-07-22T07:53:39;9.25;;;6.00;;
19509;SDS011;9896;42.486;26.506;2023-07-22T07:56:04;11.60;;;6.00;;
19509;SDS011;9896;42.486;26.506;2023-07-22T07:58:30;9.63;;;5.95;;
19509;SDS011;9896;42.486;26.506;2023-07-22T08:00:55;12.05;;;6.32;;
19509;SDS011;9896;42.486;26.506;2023-07-22T08:03:21;9.45;;;6.10;;
19509;SDS011;9896;42.486;26.506;2023-07-22T08:05:46;9.77;;;6.22;;
19509;SDS011;9896;42.486;26.506;2023-07-22T08:08:11;9.38;;;6.80;;
19509;SDS011;9896;42.486;26.506;2023-07-22T08:10:37;11.07;;;6.45;;
19509;SDS011;9896;42.486;26.506;2023-07-22T08:13:04;11.93;;;6.55;;
19509;SDS011;9896;42.486;26.506;2023-07-22T08:15:29;11.40;;;6.82;;
19509;SDS011;9896;42.486;26.506;2023-07-22T08:17:55;9.02;;;6.43;;
19509;SDS011;9896;42.486;26.506;2023-07-22T08:20:20;9.95;;;6.30;;
19509;SDS011;9896;42.486;26.506;2023-07-22T08:22:46;77.10;;;11.23;;
19509;SDS011;9896;42.486;26.506;2023-07-22T08:25:11;62.40;;;9.00;;
19509;SDS011;9896;42.486;26.506;2023-07-22T08:27:37;10.05;;;6.45;;
19509;SDS011;9896;42.486;26.506;2023-07-22T08:30:02;11.68;;;8.43;;
19509;SDS011;9896;42.486;26.506;2023-07-22T08:32:28;9.30;;;6.07;;
19509;SDS011;9896;42.486;26.506;2023-07-22T08:34:53;10.07;;;6.15;;
19509;SDS011;9896;42.486;26.506;2023-07-22T08:37:19;10.27;;;6.43;;
19509;SDS011;9896;42.486;26.506;2023-07-22T08:39:44;10.43;;;6.40;;
19509;SDS011;9896;42.486;26.506;2023-07-22T08:42:09;15.18;;;6.75;;
19509;SDS011;9896;42.486;26.506;2023-07-22T08:44:37;10.65;;;6.13;;
19509;SDS011;9896;42.486;26.506;2023-07-22T08:47:03;10.00;;;6.15;;
19509;SDS011;9896;42.486;26.506;2023-07-22T08:49:29;9.93;;;5.95;;
19509;SDS011;9896;42.486;26.506;2023-07-22T08:51:55;9.52;;;6.43;;
19509;SDS011;9896;42.486;26.506;2023-07-22T08:54:22;13.65;;;8.57;;
19509;SDS011;9896;42.486;26.506;2023-07-22T08:56:48;9.35;;;6.22;;
19509;SDS011;9896;42.486;26.506;2023-07-22T08:59:16;10.30;;;8.18;;
19509;SDS011;9896;42.486;26.506;2023-07-22T09:01:42;16.98;;;15.13;;
19509;SDS011;9896;42.486;26.506;2023-07-22T09:04:08;274.42;;;42.05;;
19509;SDS011;9896;42.486;26.506;2023-07-22T09:06:33;10.43;;;6.60;;
19509;SDS011;9896;42.486;26.506;2023-07-22T09:08:59;8.90;;;7.18;;
19509;SDS011;9896;42.486;26.506;2023-07-22T09:11:25;9.35;;;6.43;;
19509;SDS011;9896;42.486;26.506;2023-07-22T09:13:51;9.07;;;6.22;;
19509;SDS011;9896;42.486;26.506;2023-07-22T09:16:17;11.05;;;6.60;;
19509;SDS011;9896;42.486;26.506;2023-07-22T09:18:42;9.05;;;7.75;;
19509;SDS011;9896;42.486;26.506;2023-07-22T09:21:08;15.25;;;7.38;;
19509;SDS011;9896;42.486;26.506;2023-07-22T09:23:34;10.88;;;7.82;;
19509;SDS011;9896;42.486;26.506;2023-07-22T09:26:32;24.35;;;13.75;;
19509;SDS011;9896;42.486;26.506;2023-07-22T09:28:53;11.13;;;6.78;;
19509;SDS011;9896;42.486;26.506;2023-07-22T09:31:20;36.05;;;13.63;;
19509;SDS011;9896;42.486;26.506;2023-07-22T09:33:45;12.80;;;7.28;;
19509;SDS011;9896;42.486;26.506;2023-07-22T09:36:11;11.63;;;6.88;;
19509;SDS011;9896;42.486;26.506;2023-07-22T09:38:37;19.13;;;9.05;;
19509;SDS011;9896;42.486;26.506;2023-07-22T09:41:02;22.70;;;13.07;;
19509;SDS011;9896;42.486;26.506;2023-07-22T09:43:29;14.88;;;9.20;;
19509;SDS011;9896;42.486;26.506;2023-07-22T09:45:54;10.55;;;8.82;;
19509;SDS011;9896;42.486;26.506;2023-07-22T09:48:21;187.65;;;42.55;;
19509;SDS011;9896;42.486;26.506;2023-07-22T09:50:47;19.65;;;8.45;;
19509;SDS011;9896;42.486;26.506;2023-07-22T09:53:21;17.65;;;8.75;;
19509;SDS011;9896;42.486;26.506;2023-07-22T09:55:46;14.65;;;9.77;;
19509;SDS011;9896;42.486;26.506;2023-07-22T09:58:12;17.25;;;8.98;;
19509;SDS011;9896;42.486;26.506;2023-07-22T10:00:39;20.02;;;9.15;;
19509;SDS011;9896;42.486;26.506;2023-07-22T10:03:08;30.42;;;19.50;;
19509;SDS011;9896;42.486;26.506;2023-07-22T10:05:35;102.57;;;36.45;;
19509;SDS011;9896;42.486;26.506;2023-07-22T10:08:01;28.33;;;9.32;;
19509;SDS011;9896;42.486;26.506;2023-07-22T10:10:34;48.15;;;19.60;;
19509;SDS011;9896;42.486;26.506;2023-07-22T10:12:59;702.83;;;67.00;;
19509;SDS011;9896;42.486;26.506;2023-07-22T10:15:27;33.38;;;14.93;;
19509;SDS011;9896;42.486;26.506;2023-07-22T10:17:53;256.88;;;24.33;;
19509;SDS011;9896;42.486;26.506;2023-07-22T10:20:20;33.05;;;16.05;;
19509;SDS011;9896;42.486;26.506;2023-07-22T10:22:47;24.83;;;14.63;;
19509;SDS011;9896;42.486;26.506;2023-07-22T10:25:14;39.38;;;13.18;;
19509;SDS011;9896;42.486;26.506;2023-07-22T10:27:39;34.88;;;15.95;;
19509;SDS011;9896;42.486;26.506;2023-07-22T10:30:09;61.13;;;25.13;;
19509;SDS011;9896;42.486;26.506;2023-07-22T10:32:35;577.72;;;83.35;;
19509;SDS011;9896;42.486;26.506;2023-07-22T10:35:01;44.58;;;33.05;;
19509;SDS011;9896;42.486;26.506;2023-07-22T10:37:32;170.27;;;92.88;;
19509;SDS011;9896;42.486;26.506;2023-07-22T10:40:16;42.13;;;20.10;;
19509;SDS011;9896;42.486;26.506;2023-07-22T10:42:50;260.48;;;155.93;;
19509;SDS011;9896;42.486;26.506;2023-07-22T10:45:32;82.93;;;37.70;;
19509;SDS011;9896;42.486;26.506;2023-07-22T10:48:10;64.28;;;38.03;;
19509;SDS011;9896;42.486;26.506;2023-07-22T10:53:06;565.92;;;134.55;;
19509;SDS011;9896;42.486;26.506;2023-07-22T10:55:34;161.23;;;56.90;;
19509;SDS011;9896;42.486;26.506;2023-07-22T10:58:19;96.47;;;46.17;;
19509;SDS011;9896;42.486;26.506;2023-07-22T11:00:45;159.05;;;60.05;;
19509;SDS011;9896;42.486;26.506;2023-07-22T11:03:14;212.32;;;73.65;;
19509;SDS011;9896;42.486;26.506;2023-07-22T11:05:49;210.52;;;108.65;;
19509;SDS011;9896;42.486;26.506;2023-07-22T11:08:15;191.38;;;89.85;;
19509;SDS011;9896;42.486;26.506;2023-07-22T11:10:53;806.83;;;319.52;;
19509;SDS011;9896;42.486;26.506;2023-07-22T11:13:26;325.90;;;170.18;;
19509;SDS011;9896;42.486;26.506;2023-07-22T11:15:51;314.23;;;115.03;;
19509;SDS011;9896;42.486;26.506;2023-07-22T11:18:17;318.92;;;52.45;;
19509;SDS011;9896;42.486;26.506;2023-07-22T11:20:42;172.38;;;77.63;;
19509;SDS011;9896;42.486;26.506;2023-07-22T11:23:08;79.43;;;37.42;;
19509;SDS011;9896;42.486;26.506;2023-07-22T11:25:33;105.05;;;54.15;;
19509;SDS011;9896;42.486;26.506;2023-07-22T11:27:59;146.43;;;61.17;;
19509;SDS011;9896;42.486;26.506;2023-07-22T11:30:24;1446.47;;;995.83;;
19509;SDS011;9896;42.486;26.506;2023-07-22T11:32:50;1999.90;;;999.90;;
19509;SDS011;9896;42.486;26.506;2023-07-22T11:35:15;1584.57;;;999.90;;
19509;SDS011;9896;42.486;26.506;2023-07-22T11:37:41;1936.63;;;979.30;;
19509;SDS011;9896;42.486;26.506;2023-07-22T11:40:08;1999.90;;;896.30;;
19509;SDS011;9896;42.486;26.506;2023-07-22T11:42:36;1999.90;;;913.17;;
19509;SDS011;9896;42.486;26.506;2023-07-22T11:45:02;815.45;;;443.27;;
19509;SDS011;9896;42.486;26.506;2023-07-22T11:47:30;1089.28;;;872.13;;
19509;SDS011;9896;42.486;26.506;2023-07-22T11:49:58;1999.90;;;987.53;;
19509;SDS011;9896;42.486;26.506;2023-07-22T11:52:23;953.20;;;295.85;;
19509;SDS011;9896;42.486;26.506;2023-07-22T11:54:49;494.23;;;238.82;;
19509;SDS011;9896;42.486;26.506;2023-07-22T11:57:21;1155.38;;;781.13;;
19509;SDS011;9896;42.486;26.506;2023-07-22T11:59:47;1652.15;;;820.50;;
19509;SDS011;9896;42.486;26.506;2023-07-22T12:02:18;822.08;;;720.15;;
19509;SDS011;9896;42.486;26.506;2023-07-22T12:04:44;1999.90;;;999.90;;
19509;SDS011;9896;42.486;26.506;2023-07-22T12:07:26;1999.90;;;999.90;;
19509;SDS011;9896;42.486;26.506;2023-07-22T12:09:53;1999.90;;;996.33;;
19509;SDS011;9896;42.486;26.506;2023-07-22T12:12:18;1999.90;;;999.90;;
19509;SDS011;9896;42.486;26.506;2023-07-22T12:14:44;1999.90;;;999.90;;
19509;SDS011;9896;42.486;26.506;2023-07-22T12:17:09;1999.90;;;999.90;;
19509;SDS011;9896;42.486;26.506;2023-07-22T12:19:35;1999.90;;;999.90;;
19509;SDS011;9896;42.486;26.506;2023-07-22T12:22:00;1999.90;;;862.13;;
19509;SDS011;9896;42.486;26.506;2023-07-22T12:24:26;1999.90;;;999.90;;
19509;SDS011;9896;42.486;26.506;2023-07-22T12:26:52;1999.90;;;999.90;;
19509;SDS011;9896;42.486;26.506;2023-07-22T12:29:17;1999.90;;;999.90;;
19509;SDS011;9896;42.486;26.506;2023-07-22T12:31:42;1999.90;;;548.92;;
19509;SDS011;9896;42.486;26.506;2023-07-22T12:34:08;1999.90;;;999.90;;
19509;SDS011;9896;42.486;26.506;2023-07-22T12:36:33;1999.90;;;649.00;;
19509;SDS011;9896;42.486;26.506;2023-07-22T12:38:59;1999.90;;;623.60;;
19509;SDS011;9896;42.486;26.506;2023-07-22T12:41:24;1818.18;;;777.53;;
19509;SDS011;9896;42.486;26.506;2023-07-22T12:43:50;1999.90;;;999.90;;
19509;SDS011;9896;42.486;26.506;2023-07-22T12:46:15;1999.90;;;999.90;;
19509;SDS011;9896;42.486;26.506;2023-07-22T12:48:41;1999.90;;;862.28;;
19509;SDS011;9896;42.486;26.506;2023-07-22T12:51:06;1999.90;;;812.05;;
19509;SDS011;9896;42.486;26.506;2023-07-22T12:53:34;1999.90;;;999.90;;
19509;SDS011;9896;42.486;26.506;2023-07-22T12:55:59;1879.90;;;790.83;;
19509;SDS011;9896;42.486;26.506;2023-07-22T12:58:27;1999.90;;;678.47;;
19509;SDS011;9896;42.486;26.506;2023-07-22T13:00:52;1999.90;;;998.83;;
19509;SDS011;9896;42.486;26.506;2023-07-22T13:03:17;1999.90;;;781.45;;
19509;SDS011;9896;42.486;26.506;2023-07-22T13:05:43;1999.90;;;789.42;;
19509;SDS011;9896;42.486;26.506;2023-07-22T13:08:08;1999.90;;;897.42;;
19509;SDS011;9896;42.486;26.506;2023-07-22T13:10:33;1999.90;;;999.90;;
19509;SDS011;9896;42.486;26.506;2023-07-22T13:13:02;1999.90;;;999.90;;
19509;SDS011;9896;42.486;26.506;2023-07-22T13:15:27;1999.90;;;340.98;;
19509;SDS011;9896;42.486;26.506;2023-07-22T13:17:53;1999.90;;;999.90;;
19509;SDS011;9896;42.486;26.506;2023-07-22T13:20:18;1999.90;;;999.90;;
19509;SDS011;9896;42.486;26.506;2023-07-22T13:22:44;1999.90;;;999.90;;
19509;SDS011;9896;42.486;26.506;2023-07-22T13:25:09;1999.90;;;999.90;;
19509;SDS011;9896;42.486;26.506;2023-07-22T13:27:35;1999.90;;;822.58;;
19509;SDS011;9896;42.486;26.506;2023-07-22T13:30:00;1999.90;;;966.97;;
19509;SDS011;9896;42.486;26.506;2023-07-22T13:32:26;1999.90;;;999.90;;
19509;SDS011;9896;42.486;26.506;2023-07-22T13:34:51;1187.38;;;507.98;;
19509;SDS011;9896;42.486;26.506;2023-07-22T13:37:17;1999.90;;;999.90;;
19509;SDS011;9896;42.486;26.506;2023-07-22T13:39:42;1999.90;;;999.90;;
19509;SDS011;9896;42.486;26.506;2023-07-22T13:42:08;1999.90;;;999.90;;
19509;SDS011;9896;42.486;26.506;2023-07-22T13:44:33;1999.90;;;999.90;;
19509;SDS011;9896;42.486;26.506;2023-07-22T13:46:59;1999.90;;;999.90;;
19509;SDS011;9896;42.486;26.506;2023-07-22T13:49:24;1999.90;;;999.90;;
19509;SDS011;9896;42.486;26.506;2023-07-22T13:51:50;1999.90;;;999.90;;
19509;SDS011;9896;42.486;26.506;2023-07-22T13:54:15;1999.90;;;999.90;;
19509;SDS011;9896;42.486;26.506;2023-07-22T13:56:41;1999.90;;;999.90;;
19509;SDS011;9896;42.486;26.506;2023-07-22T13:59:08;1999.90;;;999.90;;
19509;SDS011;9896;42.486;26.506;2023-07-22T14:01:34;1999.90;;;999.90;;
19509;SDS011;9896;42.486;26.506;2023-07-22T14:03:59;1999.90;;;999.90;;
19509;SDS011;9896;42.486;26.506;2023-07-22T14:06:24;1999.90;;;999.90;;
19509;SDS011;9896;42.486;26.506;2023-07-22T14:08:50;1999.90;;;999.90;;
19509;SDS011;9896;42.486;26.506;2023-07-22T14:11:15;1999.90;;;999.90;;
19509;SDS011;9896;42.486;26.506;2023-07-22T14:13:41;1999.90;;;999.90;;
19509;SDS011;9896;42.486;26.506;2023-07-22T14:16:06;1999.90;;;999.90;;